sensor_id;sensor_type;location;lat;lon;timestamp;pressure;altitude;pressure_sealevel;temperature
71807;BMP280;59655;42.590;23.364;2024-02-15T00:01:26;91647.41;;;2.78
71807;BMP280;59655;42.590;23.364;2024-02-15T00:03:52;91658.84;;;2.92
71807;BMP280;59655;42.590;23.364;2024-02-15T00:06:18;91671.00;;;2.84
71807;BMP280;59655;42.590;23.364;2024-02-15T00:08:44;91671.22;;;2.81
71807;BMP280;59655;42.590;23.364;2024-02-15T00:11:10;91664.56;;;2.91
71807;BMP280;59655;42.590;23.364;2024-02-15T00:13:35;91668.13;;;2.82
71807;BMP280;59655;42.590;23.364;2024-02-15T00:16:01;91670.97;;;2.73
71807;BMP280;59655;42.590;23.364;2024-02-15T00:18:27;91666.44;;;2.79
71807;BMP280;59655;42.590;23.364;2024-02-15T00:20:52;91671.66;;;2.56
71807;BMP280;59655;42.590;23.364;2024-02-15T00:23:17;91675.19;;;2.48
71807;BMP280;59655;42.590;23.364;2024-02-15T00:25:44;91672.63;;;2.59
71807;BMP280;59655;42.590;23.364;2024-02-15T00:28:11;91680.47;;;2.53
71807;BMP280;59655;42.590;23.364;2024-02-15T00:30:37;91671.69;;;2.79
71807;BMP280;59655;42.590;23.364;2024-02-15T00:33:02;91670.03;;;2.87
71807;BMP280;59655;42.590;23.364;2024-02-15T00:35:29;91686.22;;;2.91
71807;BMP280;59655;42.590;23.364;2024-02-15T00:37:54;91674.31;;;2.79
71807;BMP280;59655;42.590;23.364;2024-02-15T00:40:20;91678.34;;;2.86
71807;BMP280;59655;42.590;23.364;2024-02-15T00:42:46;91688.81;;;2.63
71807;BMP280;59655;42.590;23.364;2024-02-15T00:45:11;91692.63;;;2.62
71807;BMP280;59655;42.590;23.364;2024-02-15T00:47:37;91687.59;;;2.70
71807;BMP280;59655;42.590;23.364;2024-02-15T00:50:08;91679.75;;;2.75
71807;BMP280;59655;42.590;23.364;2024-02-15T00:52:34;91691.91;;;2.62
71807;BMP280;59655;42.590;23.364;2024-02-15T00:54:59;91680.47;;;2.70
71807;BMP280;59655;42.590;23.364;2024-02-15T00:57:24;91673.34;;;2.71
71807;BMP280;59655;42.590;23.364;2024-02-15T00:59:50;91686.94;;;2.81
71807;BMP280;59655;42.590;23.364;2024-02-15T01:02:17;91679.75;;;2.64
71807;BMP280;59655;42.590;23.364;2024-02-15T01:04:43;91686.69;;;2.73
71807;BMP280;59655;42.590;23.364;2024-02-15T01:07:10;91688.09;;;2.79
71807;BMP280;59655;42.590;23.364;2024-02-15T01:09:36;91693.13;;;2.89
71807;BMP280;59655;42.590;23.364;2024-02-15T01:12:01;91679.31;;;2.77
71807;BMP280;59655;42.590;23.364;2024-02-15T01:14:29;91685.94;;;2.55
71807;BMP280;59655;42.590;23.364;2024-02-15T01:16:56;91674.53;;;2.64
71807;BMP280;59655;42.590;23.364;2024-02-15T01:19:22;91682.41;;;2.81
71807;BMP280;59655;42.590;23.364;2024-02-15T01:21:47;91670.72;;;2.65
71807;BMP280;59655;42.590;23.364;2024-02-15T01:24:12;91677.84;;;2.53
71807;BMP280;59655;42.590;23.364;2024-02-15T01:26:38;91667.88;;;2.63
71807;BMP280;59655;42.590;23.364;2024-02-15T01:29:03;91660.47;;;2.56
71807;BMP280;59655;42.590;23.364;2024-02-15T01:31:28;91679.06;;;2.64
71807;BMP280;59655;42.590;23.364;2024-02-15T01:33:54;91664.53;;;2.63
71807;BMP280;59655;42.590;23.364;2024-02-15T01:36:19;91663.31;;;2.58
71807;BMP280;59655;42.590;23.364;2024-02-15T01:38:45;91664.78;;;2.59
71807;BMP280;59655;42.590;23.364;2024-02-15T01:41:11;91678.34;;;2.63
71807;BMP280;59655;42.590;23.364;2024-02-15T01:43:36;91673.81;;;2.75
71807;BMP280;59655;42.590;23.364;2024-02-15T01:46:09;91676.69;;;2.77
71807;BMP280;59655;42.590;23.364;2024-02-15T01:48:36;91676.44;;;2.69
71807;BMP280;59655;42.590;23.364;2024-02-15T01:51:02;91665.25;;;2.74
71807;BMP280;59655;42.590;23.364;2024-02-15T01:53:29;91674.03;;;2.71
71807;BMP280;59655;42.590;23.364;2024-02-15T01:55:56;91664.28;;;2.66
71807;BMP280;59655;42.590;23.364;2024-02-15T01:58:23;91676.88;;;2.51
71807;BMP280;59655;42.590;23.364;2024-02-15T02:00:49;91679.97;;;2.61
71807;BMP280;59655;42.590;23.364;2024-02-15T02:03:15;91674.97;;;2.68
71807;BMP280;59655;42.590;23.364;2024-02-15T02:05:42;91671.91;;;2.70
71807;BMP280;59655;42.590;23.364;2024-02-15T02:08:07;91675.97;;;2.71
71807;BMP280;59655;42.590;23.364;2024-02-15T02:10:36;91675.72;;;2.57
71807;BMP280;59655;42.590;23.364;2024-02-15T02:13:02;91685.91;;;2.44
71807;BMP280;59655;42.590;23.364;2024-02-15T02:15:27;91677.09;;;2.47
71807;BMP280;59655;42.590;23.364;2024-02-15T02:17:54;91671.88;;;2.47
71807;BMP280;59655;42.590;23.364;2024-02-15T02:20:19;91680.22;;;2.68
71807;BMP280;59655;42.590;23.364;2024-02-15T02:22:49;91683.09;;;2.59
71807;BMP280;59655;42.590;23.364;2024-02-15T02:25:16;91683.09;;;2.59
71807;BMP280;59655;42.590;23.364;2024-02-15T02:27:41;91687.38;;;2.62
71807;BMP280;59655;42.590;23.364;2024-02-15T02:30:15;91685.97;;;2.61
71807;BMP280;59655;42.590;23.364;2024-02-15T02:32:42;91689.75;;;2.71
71807;BMP280;59655;42.590;23.364;2024-02-15T02:35:08;91694.28;;;2.71
71807;BMP280;59655;42.590;23.364;2024-02-15T02:37:37;91698.09;;;2.64
71807;BMP280;59655;42.590;23.364;2024-02-15T02:40:06;91699.28;;;2.63
71807;BMP280;59655;42.590;23.364;2024-02-15T02:42:34;91691.91;;;2.67
71807;BMP280;59655;42.590;23.364;2024-02-15T02:44:59;91701.16;;;2.51
71807;BMP280;59655;42.590;23.364;2024-02-15T02:47:24;91703.09;;;2.62
71807;BMP280;59655;42.590;23.364;2024-02-15T02:49:50;91700.44;;;2.56
71807;BMP280;59655;42.590;23.364;2024-02-15T02:52:15;91703.34;;;2.64
71807;BMP280;59655;42.590;23.364;2024-02-15T02:54:40;91699.72;;;2.50
71807;BMP280;59655;42.590;23.364;2024-02-15T02:57:06;91700.66;;;2.53
71807;BMP280;59655;42.590;23.364;2024-02-15T02:59:34;91708.25;;;2.45
71807;BMP280;59655;42.590;23.364;2024-02-15T03:02:00;91701.44;;;2.59
71807;BMP280;59655;42.590;23.364;2024-02-15T03:04:25;91703.56;;;2.55
71807;BMP280;59655;42.590;23.364;2024-02-15T03:06:51;91699.97;;;2.58
71807;BMP280;59655;42.590;23.364;2024-02-15T03:09:18;91703.28;;;2.47
71807;BMP280;59655;42.590;23.364;2024-02-15T03:11:45;91701.56;;;2.38
71807;BMP280;59655;42.590;23.364;2024-02-15T03:14:11;91701.38;;;2.48
71807;BMP280;59655;42.590;23.364;2024-02-15T03:16:38;91702.03;;;2.37
71807;BMP280;59655;42.590;23.364;2024-02-15T03:19:03;91705.13;;;2.35
71807;BMP280;59655;42.590;23.364;2024-02-15T03:21:29;91703.94;;;2.25
71807;BMP280;59655;42.590;23.364;2024-02-15T03:23:55;91706.81;;;2.38
71807;BMP280;59655;42.590;23.364;2024-02-15T03:26:32;91704.00;;;2.48
71807;BMP280;59655;42.590;23.364;2024-02-15T03:29:04;91708.25;;;2.45
71807;BMP280;59655;42.590;23.364;2024-02-15T03:31:30;91715.88;;;2.49
71807;BMP280;59655;42.590;23.364;2024-02-15T03:33:57;91708.00;;;2.43
71807;BMP280;59655;42.590;23.364;2024-02-15T03:36:24;91709.41;;;2.27
71807;BMP280;59655;42.590;23.364;2024-02-15T03:38:49;91713.72;;;2.36
71807;BMP280;59655;42.590;23.364;2024-02-15T03:41:15;91712.03;;;2.38
71807;BMP280;59655;42.590;23.364;2024-02-15T03:43:40;91706.81;;;2.38
71807;BMP280;59655;42.590;23.364;2024-02-15T03:46:05;91711.56;;;2.34
71807;BMP280;59655;42.590;23.364;2024-02-15T03:48:33;91709.97;;;2.54
71807;BMP280;59655;42.590;23.364;2024-02-15T03:50:59;91709.41;;;2.33
71807;BMP280;59655;42.590;23.364;2024-02-15T03:53:24;91700.63;;;2.30
71807;BMP280;59655;42.590;23.364;2024-02-15T03:55:51;91701.81;;;2.35
71807;BMP280;59655;42.590;23.364;2024-02-15T03:58:18;91702.03;;;2.31
71807;BMP280;59655;42.590;23.364;2024-02-15T04:00:45;91708.50;;;2.42
71807;BMP280;59655;42.590;23.364;2024-02-15T04:03:10;91708.00;;;2.43
71807;BMP280;59655;42.590;23.364;2024-02-15T04:05:35;91706.56;;;2.31
71807;BMP280;59655;42.590;23.364;2024-02-15T04:08:01;91712.97;;;2.24
71807;BMP280;59655;42.590;23.364;2024-02-15T04:10:28;91705.53;;;2.11
71807;BMP280;59655;42.590;23.364;2024-02-15T04:12:53;91702.00;;;2.26
71807;BMP280;59655;42.590;23.364;2024-02-15T04:15:19;91694.00;;;2.46
71807;BMP280;59655;42.590;23.364;2024-02-15T04:17:44;91703.00;;;2.34
71807;BMP280;59655;42.590;23.364;2024-02-15T04:20:10;91700.81;;;2.21
71807;BMP280;59655;42.590;23.364;2024-02-15T04:22:37;91707.47;;;2.16
71807;BMP280;59655;42.590;23.364;2024-02-15T04:25:07;91707.41;;;2.05
71807;BMP280;59655;42.590;23.364;2024-02-15T04:27:34;91709.63;;;2.24
71807;BMP280;59655;42.590;23.364;2024-02-15T04:30:00;91706.59;;;2.42
71807;BMP280;59655;42.590;23.364;2024-02-15T04:32:25;91704.88;;;2.22
71807;BMP280;59655;42.590;23.364;2024-02-15T04:34:51;91719.88;;;2.27
71807;BMP280;59655;42.590;23.364;2024-02-15T04:37:17;91711.78;;;2.25
71807;BMP280;59655;42.590;23.364;2024-02-15T04:39:43;91703.25;;;2.42
71807;BMP280;59655;42.590;23.364;2024-02-15T04:42:08;91705.47;;;2.00
71807;BMP280;59655;42.590;23.364;2024-02-15T04:44:39;91707.72;;;2.18
71807;BMP280;59655;42.590;23.364;2024-02-15T04:47:05;91712.47;;;2.20
71807;BMP280;59655;42.590;23.364;2024-02-15T04:49:30;91723.44;;;2.24
71807;BMP280;59655;42.590;23.364;2024-02-15T04:51:56;91721.91;;;2.06
71807;BMP280;59655;42.590;23.364;2024-02-15T04:54:26;91718.56;;;2.06
71807;BMP280;59655;42.590;23.364;2024-02-15T04:56:52;91714.53;;;2.10
71807;BMP280;59655;42.590;23.364;2024-02-15T04:59:20;91714.34;;;2.14
71807;BMP280;59655;42.590;23.364;2024-02-15T05:01:47;91724.63;;;1.80
71807;BMP280;59655;42.590;23.364;2024-02-15T05:04:12;91727.06;;;1.95
71807;BMP280;59655;42.590;23.364;2024-02-15T05:06:39;91728.50;;;1.96
71807;BMP280;59655;42.590;23.364;2024-02-15T05:09:05;91729.47;;;1.98
71807;BMP280;59655;42.590;23.364;2024-02-15T05:11:39;91729.91;;;1.91
71807;BMP280;59655;42.590;23.364;2024-02-15T05:14:12;91739.53;;;2.11
71807;BMP280;59655;42.590;23.364;2024-02-15T05:16:37;91734.03;;;2.04
71807;BMP280;59655;42.590;23.364;2024-02-15T05:19:10;91743.53;;;2.01
71807;BMP280;59655;42.590;23.364;2024-02-15T05:21:38;91747.16;;;2.09
71807;BMP280;59655;42.590;23.364;2024-02-15T05:24:05;91757.03;;;1.88
71807;BMP280;59655;42.590;23.364;2024-02-15T05:26:30;91748.34;;;1.71
71807;BMP280;59655;42.590;23.364;2024-02-15T05:28:55;91747.22;;;1.83
71807;BMP280;59655;42.590;23.364;2024-02-15T05:31:21;91748.22;;;1.91
71807;BMP280;59655;42.590;23.364;2024-02-15T05:33:49;91751.84;;;1.99
71807;BMP280;59655;42.590;23.364;2024-02-15T05:36:16;91763.47;;;1.98
71807;BMP280;59655;42.590;23.364;2024-02-15T05:38:42;91764.94;;;1.68
71807;BMP280;59655;42.590;23.364;2024-02-15T05:41:11;91765.78;;;1.85
71807;BMP280;59655;42.590;23.364;2024-02-15T05:43:38;91759.38;;;1.86
71807;BMP280;59655;42.590;23.364;2024-02-15T05:46:04;91763.44;;;1.87
71807;BMP280;59655;42.590;23.364;2024-02-15T05:48:31;91760.09;;;1.92
71807;BMP280;59655;42.590;23.364;2024-02-15T05:51:00;91762.72;;;1.92
71807;BMP280;59655;42.590;23.364;2024-02-15T05:53:25;91766.03;;;1.87
71807;BMP280;59655;42.590;23.364;2024-02-15T05:55:51;91761.53;;;1.88
71807;BMP280;59655;42.590;23.364;2024-02-15T05:58:16;91763.44;;;1.87
71807;BMP280;59655;42.590;23.364;2024-02-15T06:00:42;91765.13;;;1.96
71807;BMP280;59655;42.590;23.364;2024-02-15T06:03:09;91770.78;;;1.83
71807;BMP280;59655;42.590;23.364;2024-02-15T06:05:35;91772.66;;;1.83
71807;BMP280;59655;42.590;23.364;2024-02-15T06:08:00;91773.69;;;1.96
71807;BMP280;59655;42.590;23.364;2024-02-15T06:10:26;91779.13;;;1.87
71807;BMP280;59655;42.590;23.364;2024-02-15T06:12:51;91780.38;;;1.97
71807;BMP280;59655;42.590;23.364;2024-02-15T06:15:17;91788.31;;;1.77
71807;BMP280;59655;42.590;23.364;2024-02-15T06:17:42;91785.16;;;1.99
71807;BMP280;59655;42.590;23.364;2024-02-15T06:20:11;91789.56;;;1.87
71807;BMP280;59655;42.590;23.364;2024-02-15T06:22:40;91796.94;;;1.83
71807;BMP280;59655;42.590;23.364;2024-02-15T06:25:05;91807.91;;;1.93
71807;BMP280;59655;42.590;23.364;2024-02-15T06:27:31;91797.69;;;1.95
71807;BMP280;59655;42.590;23.364;2024-02-15T06:29:57;91812.38;;;1.81
71807;BMP280;59655;42.590;23.364;2024-02-15T06:32:41;91811.16;;;1.76
71807;BMP280;59655;42.590;23.364;2024-02-15T06:35:25;91825.03;;;1.88
71807;BMP280;59655;42.590;23.364;2024-02-15T06:38:08;91819.50;;;1.81
71807;BMP280;59655;42.590;23.364;2024-02-15T06:40:52;91808.84;;;1.90
71807;BMP280;59655;42.590;23.364;2024-02-15T06:43:19;91820.47;;;1.89
71807;BMP280;59655;42.590;23.364;2024-02-15T06:45:44;91806.22;;;1.84
71807;BMP280;59655;42.590;23.364;2024-02-15T06:48:12;91813.81;;;1.82
71807;BMP280;59655;42.590;23.364;2024-02-15T06:50:38;91812.00;;;1.99
71807;BMP280;59655;42.590;23.364;2024-02-15T06:53:03;91814.28;;;1.81
71807;BMP280;59655;42.590;23.364;2024-02-15T06:55:28;91817.50;;;2.02
71807;BMP280;59655;42.590;23.364;2024-02-15T06:57:54;91805.78;;;1.91
71807;BMP280;59655;42.590;23.364;2024-02-15T07:00:20;91812.63;;;1.89
71807;BMP280;59655;42.590;23.364;2024-02-15T07:02:46;91813.38;;;1.95
71807;BMP280;59655;42.590;23.364;2024-02-15T07:05:13;91804.66;;;2.04
71807;BMP280;59655;42.590;23.364;2024-02-15T07:07:38;91805.59;;;2.01
71807;BMP280;59655;42.590;23.364;2024-02-15T07:10:05;91801.50;;;1.94
71807;BMP280;59655;42.590;23.364;2024-02-15T07:12:31;91795.34;;;1.97
71807;BMP280;59655;42.590;23.364;2024-02-15T07:14:57;91799.94;;;2.08
71807;BMP280;59655;42.590;23.364;2024-02-15T07:17:23;91802.09;;;2.09
71807;BMP280;59655;42.590;23.364;2024-02-15T07:19:48;91800.59;;;2.03
71807;BMP280;59655;42.590;23.364;2024-02-15T07:22:17;91810.88;;;2.06
71807;BMP280;59655;42.590;23.364;2024-02-15T07:24:42;91802.47;;;2.28
71807;BMP280;59655;42.590;23.364;2024-02-15T07:27:07;91808.63;;;2.25
71807;BMP280;59655;42.590;23.364;2024-02-15T07:29:34;91815.03;;;2.24
71807;BMP280;59655;42.590;23.364;2024-02-15T07:32:08;91815.44;;;2.11
71807;BMP280;59655;42.590;23.364;2024-02-15T07:34:34;91811.22;;;2.25
71807;BMP280;59655;42.590;23.364;2024-02-15T07:36:59;91813.19;;;2.36
71807;BMP280;59655;42.590;23.364;2024-02-15T07:39:25;91801.53;;;2.43
71807;BMP280;59655;42.590;23.364;2024-02-15T07:41:56;91806.38;;;2.12
71807;BMP280;59655;42.590;23.364;2024-02-15T07:44:23;91803.81;;;2.18
71807;BMP280;59655;42.590;23.364;2024-02-15T07:46:50;91802.38;;;2.17
71807;BMP280;59655;42.590;23.364;2024-02-15T07:49:15;91806.66;;;2.20
71807;BMP280;59655;42.590;23.364;2024-02-15T07:51:42;91813.91;;;2.36
71807;BMP280;59655;42.590;23.364;2024-02-15T07:54:08;91820.56;;;2.37
71807;BMP280;59655;42.590;23.364;2024-02-15T07:56:34;91810.09;;;2.32
71807;BMP280;59655;42.590;23.364;2024-02-15T07:59:00;91813.50;;;2.49
71807;BMP280;59655;42.590;23.364;2024-02-15T08:01:25;91806.69;;;2.26
71807;BMP280;59655;42.590;23.364;2024-02-15T08:03:51;91816.00;;;2.27
71807;BMP280;59655;42.590;23.364;2024-02-15T08:06:18;91811.06;;;2.40
71807;BMP280;59655;42.590;23.364;2024-02-15T08:08:45;91816.59;;;2.48
71807;BMP280;59655;42.590;23.364;2024-02-15T08:11:11;91828.44;;;2.43
71807;BMP280;59655;42.590;23.364;2024-02-15T08:13:48;91818.78;;;2.61
71807;BMP280;59655;42.590;23.364;2024-02-15T08:16:22;91814.75;;;2.59
71807;BMP280;59655;42.590;23.364;2024-02-15T08:18:48;91801.66;;;2.59
71807;BMP280;59655;42.590;23.364;2024-02-15T08:21:17;91804.53;;;2.73
71807;BMP280;59655;42.590;23.364;2024-02-15T08:23:42;91805.22;;;2.68
71807;BMP280;59655;42.590;23.364;2024-02-15T08:26:08;91825.69;;;2.58
71807;BMP280;59655;42.590;23.364;2024-02-15T08:28:36;91799.03;;;2.59
71807;BMP280;59655;42.590;23.364;2024-02-15T08:31:01;91804.03;;;2.63
71807;BMP280;59655;42.590;23.364;2024-02-15T08:33:28;91804.06;;;2.74
71807;BMP280;59655;42.590;23.364;2024-02-15T08:35:55;91807.91;;;2.85
71807;BMP280;59655;42.590;23.364;2024-02-15T08:38:22;91804.81;;;2.81
71807;BMP280;59655;42.590;23.364;2024-02-15T08:40:47;91804.09;;;2.86
71807;BMP280;59655;42.590;23.364;2024-02-15T08:43:13;91813.44;;;2.92
71807;BMP280;59655;42.590;23.364;2024-02-15T08:45:40;91800.13;;;2.96
71807;BMP280;59655;42.590;23.364;2024-02-15T08:48:07;91811.75;;;2.89
71807;BMP280;59655;42.590;23.364;2024-02-15T08:50:32;91794.63;;;2.99
71807;BMP280;59655;42.590;23.364;2024-02-15T08:52:57;91801.53;;;3.03
71807;BMP280;59655;42.590;23.364;2024-02-15T08:55:23;91793.44;;;3.06
71807;BMP280;59655;42.590;23.364;2024-02-15T08:57:53;91793.94;;;3.10
71807;BMP280;59655;42.590;23.364;2024-02-15T09:00:19;91795.16;;;3.15
71807;BMP280;59655;42.590;23.364;2024-02-15T09:02:47;91791.31;;;3.16
71807;BMP280;59655;42.590;23.364;2024-02-15T09:05:14;91801.34;;;3.17
71807;BMP280;59655;42.590;23.364;2024-02-15T09:07:44;91801.59;;;3.19
71807;BMP280;59655;42.590;23.364;2024-02-15T09:10:13;91795.66;;;3.25
71807;BMP280;59655;42.590;23.364;2024-02-15T09:12:39;91797.06;;;3.31
71807;BMP280;59655;42.590;23.364;2024-02-15T09:15:06;91797.53;;;3.35
71807;BMP280;59655;42.590;23.364;2024-02-15T09:17:32;91796.13;;;3.40
71807;BMP280;59655;42.590;23.364;2024-02-15T09:22:33;91795.41;;;3.39
71807;BMP280;59655;42.590;23.364;2024-02-15T09:24:58;91799.44;;;3.29
71807;BMP280;59655;42.590;23.364;2024-02-15T09:27:24;91804.72;;;3.40
71807;BMP280;59655;42.590;23.364;2024-02-15T09:29:49;91801.59;;;3.36
71807;BMP280;59655;42.590;23.364;2024-02-15T09:32:14;91784.69;;;3.43
71807;BMP280;59655;42.590;23.364;2024-02-15T09:34:40;91791.38;;;3.55
71807;BMP280;59655;42.590;23.364;2024-02-15T09:37:07;91804.25;;;3.53
71807;BMP280;59655;42.590;23.364;2024-02-15T09:39:32;91791.59;;;3.69
71807;BMP280;59655;42.590;23.364;2024-02-15T09:41:57;91790.41;;;3.70
71807;BMP280;59655;42.590;23.364;2024-02-15T09:44:26;91798.50;;;3.66
71807;BMP280;59655;42.590;23.364;2024-02-15T09:47:04;91795.19;;;3.66
71807;BMP280;59655;42.590;23.364;2024-02-15T09:49:36;91795.88;;;3.66
71807;BMP280;59655;42.590;23.364;2024-02-15T09:52:03;91804.72;;;3.69
71807;BMP280;59655;42.590;23.364;2024-02-15T09:54:29;91803.28;;;3.68
71807;BMP280;59655;42.590;23.364;2024-02-15T09:56:55;91793.75;;;3.76
71807;BMP280;59655;42.590;23.364;2024-02-15T09:59:22;91801.13;;;3.66
71807;BMP280;59655;42.590;23.364;2024-02-15T10:01:48;91796.38;;;3.76
71807;BMP280;59655;42.590;23.364;2024-02-15T10:04:14;91790.63;;;3.77
71807;BMP280;59655;42.590;23.364;2024-02-15T10:06:42;91792.31;;;3.86
71807;BMP280;59655;42.590;23.364;2024-02-15T10:09:27;91780.38;;;3.96
71807;BMP280;59655;42.590;23.364;2024-02-15T10:11:57;91772.25;;;4.00
71807;BMP280;59655;42.590;23.364;2024-02-15T10:14:24;91776.28;;;4.01
71807;BMP280;59655;42.590;23.364;2024-02-15T10:16:50;91774.63;;;4.04
71807;BMP280;59655;42.590;23.364;2024-02-15T10:19:15;91770.09;;;4.04
71807;BMP280;59655;42.590;23.364;2024-02-15T10:21:42;91771.03;;;4.12
71807;BMP280;59655;42.590;23.364;2024-02-15T10:24:08;91772.94;;;4.17
71807;BMP280;59655;42.590;23.364;2024-02-15T10:26:35;91767.69;;;4.17
71807;BMP280;59655;42.590;23.364;2024-02-15T10:29:08;91764.09;;;4.15
71807;BMP280;59655;42.590;23.364;2024-02-15T10:31:35;91762.44;;;4.17
71807;BMP280;59655;42.590;23.364;2024-02-15T10:34:05;91765.25;;;4.25
71807;BMP280;59655;42.590;23.364;2024-02-15T10:36:31;91756.91;;;4.27
71807;BMP280;59655;42.590;23.364;2024-02-15T10:41:53;91753.78;;;4.34
71807;BMP280;59655;42.590;23.364;2024-02-15T10:44:23;91754.00;;;4.41
71807;BMP280;59655;42.590;23.364;2024-02-15T10:46:52;91754.66;;;4.48
71807;BMP280;59655;42.590;23.364;2024-02-15T10:49:24;91750.13;;;4.54
71807;BMP280;59655;42.590;23.364;2024-02-15T10:51:59;91747.28;;;4.46
71807;BMP280;59655;42.590;23.364;2024-02-15T10:54:41;91749.16;;;4.51
71807;BMP280;59655;42.590;23.364;2024-02-15T10:57:09;91744.66;;;4.46
71807;BMP280;59655;42.590;23.364;2024-02-15T10:59:37;91746.53;;;4.57
71807;BMP280;59655;42.590;23.364;2024-02-15T11:02:37;91749.41;;;4.53
71807;BMP280;59655;42.590;23.364;2024-02-15T11:05:04;91735.06;;;4.54
71807;BMP280;59655;42.590;23.364;2024-02-15T11:07:34;91735.25;;;4.62
71807;BMP280;59655;42.590;23.364;2024-02-15T11:10:00;91740.03;;;4.69
71807;BMP280;59655;42.590;23.364;2024-02-15T11:12:26;91738.09;;;4.70
71807;BMP280;59655;42.590;23.364;2024-02-15T11:14:52;91732.63;;;4.68
71807;BMP280;59655;42.590;23.364;2024-02-15T11:20:08;91742.09;;;4.82
71807;BMP280;59655;42.590;23.364;2024-02-15T11:22:36;91733.97;;;4.80
71807;BMP280;59655;42.590;23.364;2024-02-15T11:25:02;91735.09;;;4.96
71807;BMP280;59655;42.590;23.364;2024-02-15T11:27:37;91729.34;;;4.97
71807;BMP280;59655;42.590;23.364;2024-02-15T11:30:04;91724.50;;;5.01
71807;BMP280;59655;42.590;23.364;2024-02-15T11:32:50;91722.81;;;5.10
71807;BMP280;59655;42.590;23.364;2024-02-15T11:35:21;91728.44;;;5.25
71807;BMP280;59655;42.590;23.364;2024-02-15T11:41:10;91724.63;;;5.20
71807;BMP280;59655;42.590;23.364;2024-02-15T11:46:19;91725.06;;;5.24
71807;BMP280;59655;42.590;23.364;2024-02-15T11:51:24;91726.53;;;5.26
71807;BMP280;59655;42.590;23.364;2024-02-15T11:54:07;91721.16;;;5.37
71807;BMP280;59655;42.590;23.364;2024-02-15T11:56:48;91712.28;;;5.40
71807;BMP280;59655;42.590;23.364;2024-02-15T11:59:19;91723.00;;;5.48
71807;BMP280;59655;42.590;23.364;2024-02-15T12:01:58;91726.09;;;5.46
71807;BMP280;59655;42.590;23.364;2024-02-15T12:04:43;91719.25;;;5.37
71807;BMP280;59655;42.590;23.364;2024-02-15T12:07:28;91714.88;;;5.45
71807;BMP280;59655;42.590;23.364;2024-02-15T12:10:26;91709.16;;;5.41
71807;BMP280;59655;42.590;23.364;2024-02-15T12:13:27;91716.91;;;5.58
71807;BMP280;59655;42.590;23.364;2024-02-15T12:16:15;91711.41;;;5.62
71807;BMP280;59655;42.590;23.364;2024-02-15T12:18:59;91714.72;;;5.62
71807;BMP280;59655;42.590;23.364;2024-02-15T12:21:25;91721.50;;;5.52
71807;BMP280;59655;42.590;23.364;2024-02-15T12:23:53;91709.06;;;5.53
71807;BMP280;59655;42.590;23.364;2024-02-15T12:26:19;91713.44;;;5.69
71807;BMP280;59655;42.590;23.364;2024-02-15T12:28:50;91711.03;;;5.71
71807;BMP280;59655;42.590;23.364;2024-02-15T12:31:15;91712.63;;;5.80
71807;BMP280;59655;42.590;23.364;2024-02-15T12:33:42;91715.44;;;5.88
71807;BMP280;59655;42.590;23.364;2024-02-15T12:36:08;91717.13;;;5.85
71807;BMP280;59655;42.590;23.364;2024-02-15T12:38:34;91709.47;;;5.87
71807;BMP280;59655;42.590;23.364;2024-02-15T12:41:03;91716.28;;;5.96
71807;BMP280;59655;42.590;23.364;2024-02-15T12:43:29;91713.84;;;5.79
71807;BMP280;59655;42.590;23.364;2024-02-15T12:45:55;91703.94;;;6.10
71807;BMP280;59655;42.590;23.364;2024-02-15T12:48:22;91703.69;;;5.89
71807;BMP280;59655;42.590;23.364;2024-02-15T12:50:47;91699.38;;;5.91
71807;BMP280;59655;42.590;23.364;2024-02-15T12:53:12;91698.28;;;6.00
71807;BMP280;59655;42.590;23.364;2024-02-15T12:55:39;91701.84;;;6.08
71807;BMP280;59655;42.590;23.364;2024-02-15T12:58:07;91699.69;;;6.06
71807;BMP280;59655;42.590;23.364;2024-02-15T13:00:40;91693.94;;;6.08
71807;BMP280;59655;42.590;23.364;2024-02-15T13:03:07;91703.94;;;6.10
71807;BMP280;59655;42.590;23.364;2024-02-15T13:05:36;91705.09;;;6.14
71807;BMP280;59655;42.590;23.364;2024-02-15T13:08:02;91714.75;;;6.25
71807;BMP280;59655;42.590;23.364;2024-02-15T13:10:31;91700.63;;;6.28
71807;BMP280;59655;42.590;23.364;2024-02-15T13:12:57;91702.25;;;6.12
71807;BMP280;59655;42.590;23.364;2024-02-15T13:15:23;91709.72;;;6.27
71807;BMP280;59655;42.590;23.364;2024-02-15T13:17:53;91710.53;;;6.22
71807;BMP280;59655;42.590;23.364;2024-02-15T13:20:19;91707.47;;;6.18
71807;BMP280;59655;42.590;23.364;2024-02-15T13:22:52;91707.06;;;6.27
71807;BMP280;59655;42.590;23.364;2024-02-15T13:25:18;91703.81;;;6.40
71807;BMP280;59655;42.590;23.364;2024-02-15T13:27:46;91700.69;;;6.41
71807;BMP280;59655;42.590;23.364;2024-02-15T13:30:12;91707.16;;;6.59
71807;BMP280;59655;42.590;23.364;2024-02-15T13:32:41;91701.97;;;6.35
71807;BMP280;59655;42.590;23.364;2024-02-15T13:35:08;91697.56;;;6.43
71807;BMP280;59655;42.590;23.364;2024-02-15T13:37:40;91699.53;;;6.56
71807;BMP280;59655;42.590;23.364;2024-02-15T13:40:09;91710.44;;;6.46
71807;BMP280;59655;42.590;23.364;2024-02-15T13:42:43;91705.81;;;6.53
71807;BMP280;59655;42.590;23.364;2024-02-15T13:45:14;91705.09;;;6.71
71807;BMP280;59655;42.590;23.364;2024-02-15T13:47:40;91714.25;;;6.51
71807;BMP280;59655;42.590;23.364;2024-02-15T13:50:05;91706.59;;;6.66
71807;BMP280;59655;42.590;23.364;2024-02-15T13:52:33;91705.78;;;6.72
71807;BMP280;59655;42.590;23.364;2024-02-15T13:54:59;91696.50;;;7.03
71807;BMP280;59655;42.590;23.364;2024-02-15T13:57:25;91698.72;;;7.12
71807;BMP280;59655;42.590;23.364;2024-02-15T13:59:51;91703.25;;;6.98
71807;BMP280;59655;42.590;23.364;2024-02-15T14:02:16;91703.41;;;7.19
71807;BMP280;59655;42.590;23.364;2024-02-15T14:04:42;91700.22;;;7.26
71807;BMP280;59655;42.590;23.364;2024-02-15T14:07:08;91706.13;;;7.00
71807;BMP280;59655;42.590;23.364;2024-02-15T14:09:33;91693.88;;;7.29
71807;BMP280;59655;42.590;23.364;2024-02-15T14:11:59;91709.34;;;7.39
71807;BMP280;59655;42.590;23.364;2024-02-15T14:14:27;91707.00;;;7.22
71807;BMP280;59655;42.590;23.364;2024-02-15T14:16:52;91702.00;;;7.18
71807;BMP280;59655;42.590;23.364;2024-02-15T14:19:18;91708.31;;;7.15
71807;BMP280;59655;42.590;23.364;2024-02-15T14:21:43;91705.38;;;7.32
71807;BMP280;59655;42.590;23.364;2024-02-15T14:24:10;91705.41;;;7.45
71807;BMP280;59655;42.590;23.364;2024-02-15T14:26:35;91695.63;;;7.40
71807;BMP280;59655;42.590;23.364;2024-02-15T14:29:01;91694.94;;;7.26